Time;durP1;ratioP1;P1;durP2;ratioP2;P2;SDS_P1;SDS_P2;PMS_P1;PMS_P2;Temp;Humidity;BMP_temperature;BMP_pressure;BME280_temperature;BME280_humidity;BME280_pressure;Samples;Min_cycle;Max_cycle;Signal;HPM_P1;HPM_P2
2022/04/04 00:01:42;;;;;;;17.92;3.80;;;;;;;4.59;82.27;99021.25;5063389;28;20025;-62
2022/04/04 00:04:08;;;;;;;13.82;2.38;;;;;;;4.59;82.10;99017.81;5063206;28;20032;-62
2022/04/04 00:06:33;;;;;;;14.10;2.70;;;;;;;4.49;82.19;99004.16;5062544;28;20088;-61
2022/04/04 00:08:58;;;;;;;19.73;3.10;;;;;;;4.51;82.57;99015.31;5063279;28;20063;-62
2022/04/04 00:11:24;;;;;;;27.58;4.53;;;;;;;4.46;82.59;99010.19;5063221;28;20060;-62
2022/04/04 00:13:49;;;;;;;12.48;2.67;;;;;;;4.46;82.86;98993.91;5063204;28;20035;-61
2022/04/04 00:16:14;;;;;;;18.30;3.65;;;;;;;4.43;83.13;99007.63;5063291;28;20496;-61
2022/04/04 00:18:40;;;;;;;13.02;2.70;;;;;;;4.43;83.00;99002.50;5063147;28;20081;-61
2022/04/04 00:21:05;;;;;;;11.18;2.45;;;;;;;4.44;83.15;98982.81;5062955;28;20025;-61
2022/04/04 00:23:31;;;;;;;25.85;3.13;;;;;;;4.34;83.42;98997.41;5063318;28;20470;-61
2022/04/04 00:25:56;;;;;;;23.13;3.35;;;;;;;4.31;83.69;98997.44;5062992;28;20086;-61
2022/04/04 00:28:21;;;;;;;19.20;2.90;;;;;;;4.32;83.34;98983.72;5063084;28;20091;-61
2022/04/04 00:30:47;;;;;;;20.27;2.83;;;;;;;4.34;83.45;98990.53;5063072;28;20032;-61
2022/04/04 00:33:12;;;;;;;22.85;3.17;;;;;;;4.35;83.36;98978.56;5063032;28;20115;-61
2022/04/04 00:35:37;;;;;;;16.90;3.17;;;;;;;4.35;83.29;98986.25;5062840;28;20032;-61
2022/04/04 00:38:05;;;;;;;18.63;2.65;;;;;;;4.35;83.28;98981.13;5063127;28;20500;-61
2022/04/04 00:40:30;;;;;;;20.05;3.17;;;;;;;4.34;83.36;98977.69;5062940;28;20036;-61
2022/04/04 00:42:57;;;;;;;18.98;2.88;;;;;;;4.38;83.16;98973.41;5062816;28;20029;-60
2022/04/04 00:45:22;;;;;;;17.52;2.88;;;;;;;4.33;83.30;98978.56;5062537;28;20025;-61
2022/04/04 00:47:48;;;;;;;9.25;2.38;;;;;;;4.36;83.28;98962.28;5062648;28;20021;-62
2022/04/04 00:50:13;;;;;;;11.25;1.55;;;;;;;4.31;83.16;98966.59;5062750;28;20048;-61
2022/04/04 00:52:39;;;;;;;15.18;3.25;;;;;;;4.32;83.28;98958.03;5063049;28;20025;-61
2022/04/04 00:55:07;;;;;;;14.25;2.85;;;;;;;4.32;83.23;98948.59;5062600;28;20025;-61
2022/04/04 00:57:33;;;;;;;12.50;2.92;;;;;;;4.44;82.87;98952.81;5062779;28;20041;-61
2022/04/04 00:59:58;;;;;;;12.85;2.35;;;;;;;4.40;82.82;98958.84;5062600;28;20021;-61
2022/04/04 01:02:23;;;;;;;17.40;3.47;;;;;;;4.40;82.68;98955.41;5062710;28;20025;-61
2022/04/04 01:04:49;;;;;;;19.55;2.80;;;;;;;4.42;82.36;98943.41;5062758;28;20480;-61
2022/04/04 01:07:14;;;;;;;18.65;3.15;;;;;;;4.41;82.56;98949.41;5062610;28;20044;-61
2022/04/04 01:09:39;;;;;;;20.73;3.80;;;;;;;4.43;82.33;98951.09;5062665;28;20028;-61
2022/04/04 01:12:08;;;;;;;19.33;3.50;;;;;;;4.45;82.14;98939.09;5062713;28;20047;-61
2022/04/04 01:14:39;;;;;;;15.45;2.10;;;;;;;4.44;82.15;98939.94;5062351;28;20540;-61
2022/04/04 01:17:06;;;;;;;18.90;3.93;;;;;;;4.38;82.27;98929.72;5062757;28;20172;-61
2022/04/04 01:19:32;;;;;;;15.38;4.40;;;;;;;4.34;82.27;98928.03;5065524;28;20051;-62
2022/04/04 01:21:57;;;;;;;21.33;2.90;;;;;;;4.29;82.39;98933.22;5065972;28;20024;-63
2022/04/04 01:24:24;;;;;;;23.42;2.78;;;;;;;4.27;82.82;98918.66;5066529;28;20025;-62
2022/04/04 01:26:51;;;;;;;11.68;2.80;;;;;;;4.28;82.86;98923.78;5066372;28;20389;-62
2022/04/04 01:29:17;;;;;;;12.32;2.25;;;;;;;4.33;82.70;98913.47;5066047;28;20056;-61
2022/04/04 01:31:43;;;;;;;21.85;3.33;;;;;;;4.34;82.47;98910.88;5066272;28;20029;-62
2022/04/04 01:34:08;;;;;;;15.93;4.57;;;;;;;4.26;82.55;98894.69;5064552;28;20043;-61
2022/04/04 01:36:34;;;;;;;9.95;3.22;;;;;;;4.38;82.34;98909.16;5066007;28;20032;-61
2022/04/04 01:38:59;;;;;;;14.52;3.75;;;;;;;4.32;82.73;98914.34;5066149;28;20046;-61
2022/04/04 01:41:25;;;;;;;15.18;3.28;;;;;;;4.31;82.94;98904.94;5065945;28;20033;-62
2022/04/04 01:43:51;;;;;;;11.90;1.83;;;;;;;4.25;83.31;98898.09;5065818;28;20021;-61
2022/04/04 01:46:26;;;;;;;14.75;2.42;;;;;;;4.24;83.34;98887.84;5065727;28;20075;-62
2022/04/04 01:48:54;;;;;;;13.35;2.70;;;;;;;4.16;83.73;98883.63;5065704;28;20032;-61
2022/04/04 01:51:19;;;;;;;14.80;3.17;;;;;;;4.12;83.61;98881.94;5065600;28;20024;-62
2022/04/04 01:53:45;;;;;;;16.77;2.30;;;;;;;4.05;83.93;98867.44;5065858;28;20025;-62
2022/04/04 01:56:11;;;;;;;12.98;2.95;;;;;;;4.06;83.98;98874.25;5065495;28;20492;-63
2022/04/04 01:58:37;;;;;;;6.32;1.95;;;;;;;4.07;84.08;98860.56;5065658;28;20029;-63
2022/04/04 02:01:10;;;;;;;19.55;3.33;;;;;;;4.09;84.13;98856.25;5065429;28;20021;-61
2022/04/04 02:03:38;;;;;;;14.77;2.92;;;;;;;4.08;84.16;98849.44;5065744;28;20021;-62
2022/04/04 02:06:04;;;;;;;14.15;3.03;;;;;;;4.03;84.26;98846.03;5065469;28;20040;-61
2022/04/04 02:08:31;;;;;;;6.93;1.73;;;;;;;3.95;84.65;98836.69;5065465;28;20506;-61
2022/04/04 02:10:57;;;;;;;11.20;2.50;;;;;;;3.97;84.69;98840.09;5065459;28;20036;-61
2022/04/04 02:13:25;;;;;;;16.10;2.42;;;;;;;4.03;84.96;98843.47;5065755;28;20092;-61
2022/04/04 02:15:54;;;;;;;11.35;2.33;;;;;;;3.97;85.07;98829.81;5065306;28;20024;-61
2022/04/04 02:18:20;;;;;;;6.63;1.58;;;;;;;3.93;85.20;98823.00;5065077;28;20024;-61
2022/04/04 02:20:46;;;;;;;14.98;2.58;;;;;;;3.91;85.24;98823.88;5064963;28;20025;-64
2022/04/04 02:23:12;;;;;;;15.32;3.60;;;;;;;3.93;85.21;98823.00;5065148;28;20033;-61
2022/04/04 02:25:37;;;;;;;16.27;3.17;;;;;;;3.83;85.40;98800.81;5065224;28;20082;-61
2022/04/04 02:28:03;;;;;;;9.18;2.20;;;;;;;3.81;85.79;98797.41;5065017;28;20044;-60
2022/04/04 02:30:29;;;;;;;9.82;2.10;;;;;;;3.84;86.01;98807.66;5064321;28;20029;-61
2022/04/04 02:32:54;;;;;;;13.38;3.08;;;;;;;3.80;86.26;98806.81;5065004;28;20044;-61
2022/04/04 02:35:19;;;;;;;12.07;2.92;;;;;;;3.80;86.14;98798.28;5063397;28;20025;-60
2022/04/04 02:37:45;;;;;;;7.53;1.95;;;;;;;3.79;86.15;98781.16;5064830;28;20032;-62
2022/04/04 02:40:11;;;;;;;15.25;3.20;;;;;;;3.70;86.58;98772.69;5064779;28;20104;-63
2022/04/04 02:42:36;;;;;;;11.60;3.45;;;;;;;3.74;86.60;98781.19;5064828;28;20417;-63
2022/04/04 02:45:02;;;;;;;14.18;4.82;;;;;;;3.75;86.62;98775.22;5063211;28;20017;-62
2022/04/04 02:47:28;;;;;;;13.27;3.08;;;;;;;3.66;86.65;98759.88;5063007;28;20037;-62
2022/04/04 02:49:53;;;;;;;14.93;4.13;;;;;;;3.72;86.71;98768.38;5064376;28;20056;-62
2022/04/04 02:52:18;;;;;;;8.75;3.17;;;;;;;3.70;86.52;98754.72;5064456;28;20028;-62
2022/04/04 02:54:44;;;;;;;10.90;4.60;;;;;;;3.72;86.58;98752.97;5064446;28;20036;-62
2022/04/04 02:57:09;;;;;;;14.90;5.03;;;;;;;3.68;86.69;98741.03;5064494;28;20025;-62
2022/04/04 02:59:34;;;;;;;14.50;3.25;;;;;;;3.65;86.43;98717.94;5064421;28;20021;-62
2022/04/04 03:02:00;;;;;;;11.73;3.22;;;;;;;3.57;86.50;98735.09;5064342;28;20027;-64
2022/04/04 03:04:25;;;;;;;10.50;2.88;;;;;;;3.62;86.61;98725.66;5064352;28;20025;-62
2022/04/04 03:06:50;;;;;;;9.80;1.33;;;;;;;3.58;86.40;98713.72;5064470;28;20025;-63
2022/04/04 03:09:16;;;;;;;9.43;2.60;;;;;;;3.56;86.23;98715.44;5064027;28;20029;-62
2022/04/04 03:11:41;;;;;;;11.88;2.03;;;;;;;3.50;86.22;98700.94;5064283;28;20029;-63
2022/04/04 03:14:06;;;;;;;9.55;1.40;;;;;;;3.44;86.31;98691.59;5064106;28;20020;-63
2022/04/04 03:16:32;;;;;;;4.88;1.60;;;;;;;3.43;86.18;98691.59;5064169;28;20020;-63
2022/04/04 03:19:00;;;;;;;12.10;2.53;;;;;;;3.38;86.43;98680.50;5064171;28;20017;-63
2022/04/04 03:21:29;;;;;;;8.05;2.70;;;;;;;3.34;86.48;98661.72;5063961;28;20384;-62
2022/04/04 03:23:55;;;;;;;4.38;2.17;;;;;;;3.30;86.53;98662.59;5064017;28;20092;-63
2022/04/04 03:26:21;;;;;;;13.80;4.05;;;;;;;3.29;86.88;98661.75;5064078;28;20029;-63
2022/04/04 03:28:46;;;;;;;13.23;1.58;;;;;;;3.30;86.81;98654.91;5063917;28;20087;-63
2022/04/04 03:31:12;;;;;;;9.63;1.83;;;;;;;3.30;86.79;98634.38;5064068;28;20092;-63
2022/04/04 03:33:38;;;;;;;7.30;2.35;;;;;;;3.30;87.07;98642.94;5063707;28;20032;-63
2022/04/04 03:36:04;;;;;;;11.63;2.97;;;;;;;3.34;87.28;98634.34;5063679;28;20021;-63
2022/04/04 03:38:29;;;;;;;10.88;2.75;;;;;;;3.32;87.21;98627.53;5063560;28;20029;-63
2022/04/04 03:40:55;;;;;;;8.55;3.10;;;;;;;3.32;87.14;98622.41;5063453;28;20025;-63
2022/04/04 03:43:21;;;;;;;13.40;3.67;;;;;;;3.33;87.32;98616.41;5063234;28;20029;-63
2022/04/04 03:45:46;;;;;;;2.75;1.58;;;;;;;3.28;87.39;98597.63;5063239;28;20225;-64
2022/04/04 03:48:13;;;;;;;10.93;2.70;;;;;;;3.24;87.55;98596.81;5063428;28;20056;-64
2022/04/04 03:50:39;;;;;;;8.98;1.80;;;;;;;3.20;87.77;98598.56;5063244;28;20021;-63
2022/04/04 03:53:05;;;;;;;4.35;1.55;;;;;;;3.18;87.86;98589.19;5063735;28;20028;-63
2022/04/04 03:55:35;;;;;;;6.55;2.25;;;;;;;3.09;87.65;98577.25;5063406;28;20032;-64
2022/04/04 03:58:01;;;;;;;5.30;1.77;;;;;;;3.05;88.06;98575.59;5063529;28;20071;-64
2022/04/04 04:00:27;;;;;;;7.18;2.45;;;;;;;3.04;88.30;98568.75;5063433;28;20029;-64
2022/04/04 04:02:53;;;;;;;5.97;2.03;;;;;;;3.06;88.59;98559.34;5063411;28;20041;-64
2022/04/04 04:05:19;;;;;;;7.05;1.95;;;;;;;3.05;88.69;98555.09;5061925;28;20048;-63
2022/04/04 04:07:45;;;;;;;6.25;1.90;;;;;;;3.05;88.78;98539.69;5063034;28;20051;-64
2022/04/04 04:10:11;;;;;;;4.18;1.83;;;;;;;3.05;88.94;98539.69;5063303;28;20029;-64
2022/04/04 04:12:39;;;;;;;4.43;1.45;;;;;;;3.07;88.98;98532.81;5063349;28;20025;-64
2022/04/04 04:15:07;;;;;;;5.88;2.00;;;;;;;3.06;89.07;98526.00;5063103;28;20052;-65
2022/04/04 04:17:32;;;;;;;9.90;2.13;;;;;;;3.06;89.24;98520.88;5062172;28;20067;-64
2022/04/04 04:22:41;;;;;;;7.63;1.48;;;;;;;3.03;89.62;98501.25;5062941;28;20098;-64
2022/04/04 04:25:07;;;;;;;7.57;1.73;;;;;;;3.05;89.62;98489.25;5063305;28;20461;-65
2022/04/04 04:27:34;;;;;;;6.50;1.95;;;;;;;3.00;89.63;98479.91;5063014;28;20029;-64
2022/04/04 04:29:59;;;;;;;4.57;1.23;;;;;;;3.02;89.64;98473.06;5063175;28;20017;-64
2022/04/04 04:32:25;;;;;;;10.82;2.95;;;;;;;3.03;89.67;98467.94;5063081;28;20487;-62
2022/04/04 04:34:51;;;;;;;9.73;2.95;;;;;;;3.07;89.72;98461.03;5062931;28;20025;-64
2022/04/04 04:37:17;;;;;;;7.28;2.00;;;;;;;3.06;89.65;98447.38;5062878;28;20044;-65
2022/04/04 04:39:43;;;;;;;6.30;2.17;;;;;;;3.03;89.51;98421.78;5062796;28;20032;-64
2022/04/04 04:42:08;;;;;;;3.47;1.98;;;;;;;3.00;89.47;98424.38;5062500;28;20024;-64
2022/04/04 04:44:34;;;;;;;4.28;1.50;;;;;;;2.93;89.60;98412.47;5062938;28;20016;-64
2022/04/04 04:47:00;;;;;;;7.78;2.63;;;;;;;2.90;89.70;98408.22;5062752;28;20041;-64
2022/04/04 04:49:26;;;;;;;5.07;2.35;;;;;;;2.85;89.65;98403.16;5062892;28;20021;-64
2022/04/04 04:51:55;;;;;;;5.80;1.35;;;;;;;2.82;89.69;98400.59;5061217;28;20021;-64
2022/04/04 04:54:20;;;;;;;2.63;1.23;;;;;;;2.81;89.55;98378.38;5064745;28;20025;-64
2022/04/04 04:56:46;;;;;;;5.75;2.30;;;;;;;2.76;89.59;98381.88;5067139;28;20054;-63
2022/04/04 04:59:12;;;;;;;7.18;2.17;;;;;;;2.72;89.83;98369.09;5067165;28;20020;-64
2022/04/04 05:01:37;;;;;;;5.93;2.05;;;;;;;2.68;89.95;98351.19;5066725;28;20080;-64
2022/04/04 05:04:03;;;;;;;4.35;1.42;;;;;;;2.72;90.06;98353.72;5066706;28;20041;-64
2022/04/04 05:06:28;;;;;;;8.20;2.28;;;;;;;2.72;90.22;98340.03;5066403;28;20047;-64
2022/04/04 05:08:59;;;;;;;8.52;2.80;;;;;;;2.73;90.34;98344.31;5066442;28;20028;-63
2022/04/04 05:11:25;;;;;;;6.97;2.38;;;;;;;2.79;90.49;98328.03;5066747;28;20328;-63
2022/04/04 05:13:50;;;;;;;4.82;1.75;;;;;;;2.73;90.57;98314.41;5066521;28;20465;-64
2022/04/04 05:16:16;;;;;;;6.45;2.13;;;;;;;2.80;90.65;98304.94;5066518;28;20032;-63
2022/04/04 05:18:44;;;;;;;5.57;2.22;;;;;;;2.81;90.78;98309.19;5066228;28;20031;-63
2022/04/04 05:21:11;;;;;;;7.65;1.75;;;;;;;2.80;90.74;98287.00;5066226;28;20021;-63
2022/04/04 05:23:38;;;;;;;3.13;1.58;;;;;;;2.83;90.72;98288.66;5066098;28;20056;-64
2022/04/04 05:26:04;;;;;;;3.53;1.48;;;;;;;2.76;90.83;98269.13;5066058;28;20021;-64
2022/04/04 05:28:29;;;;;;;6.32;1.50;;;;;;;2.82;91.07;98272.47;5065957;28;20159;-63
2022/04/04 05:30:55;;;;;;;21.13;2.50;;;;;;;2.84;91.15;98275.84;5065736;28;20029;-64
2022/04/04 05:33:20;;;;;;;1.55;1.08;;;;;;;2.87;91.12;98258.75;5065771;28;20033;-63
2022/04/04 05:35:46;;;;;;;2.75;1.80;;;;;;;2.78;90.99;98255.41;5065102;28;20029;-64
2022/04/04 05:38:13;;;;;;;5.88;1.75;;;;;;;2.78;91.26;98240.03;5065874;28;20017;-65
2022/04/04 05:40:39;;;;;;;6.22;1.98;;;;;;;2.79;91.18;98234.06;5065801;28;20044;-64
2022/04/04 05:43:04;;;;;;;7.60;2.67;;;;;;;2.80;91.19;98222.94;5065758;28;20017;-64
2022/04/04 05:45:30;;;;;;;3.88;1.73;;;;;;;2.81;91.54;98216.94;5065370;28;20041;-64
2022/04/04 05:47:55;;;;;;;6.18;1.90;;;;;;;2.79;91.35;98193.06;5065463;28;20025;-64
2022/04/04 05:50:20;;;;;;;6.00;2.67;;;;;;;2.82;91.40;98203.28;5065340;28;20021;-65
2022/04/04 05:52:46;;;;;;;6.80;1.63;;;;;;;2.75;91.59;98167.50;5065253;28;20021;-63
2022/04/04 05:55:12;;;;;;;7.38;2.92;;;;;;;2.72;91.60;98184.59;5065286;28;20028;-63
2022/04/04 05:57:39;;;;;;;6.30;1.90;;;;;;;2.77;91.63;98174.28;5064017;28;20108;-63
2022/04/04 06:00:11;;;;;;;5.90;1.98;;;;;;;2.78;91.93;98167.47;5064972;28;20506;-65
2022/04/04 06:02:41;;;;;;;8.18;3.00;;;;;;;2.77;92.21;98163.19;5065139;28;20099;-62
2022/04/04 06:05:08;;;;;;;9.50;1.50;;;;;;;2.80;92.13;98140.06;5062427;28;20052;-63
2022/04/04 06:07:34;;;;;;;6.57;1.88;;;;;;;2.82;92.26;98149.44;5064904;28;20059;-63
2022/04/04 06:09:59;;;;;;;3.63;1.60;;;;;;;2.82;92.31;98139.19;5065228;28;20025;-64
2022/04/04 06:12:25;;;;;;;2.92;1.67;;;;;;;2.85;91.94;98125.50;5065018;28;20032;-63
2022/04/04 06:14:50;;;;;;;6.68;2.20;;;;;;;2.78;91.89;98117.03;5065163;28;20021;-63
2022/04/04 06:17:15;;;;;;;5.70;1.60;;;;;;;2.79;92.10;98116.19;5065199;28;20540;-63
2022/04/04 06:19:43;;;;;;;2.22;1.48;;;;;;;2.83;92.05;98099.03;5063253;28;20096;-63
2022/04/04 06:22:09;;;;;;;4.25;2.25;;;;;;;2.81;92.37;98090.53;5064590;28;20028;-62
2022/04/04 06:24:35;;;;;;;10.25;4.07;;;;;;;2.83;92.67;98084.50;5064874;28;20383;-63
2022/04/04 06:27:00;;;;;;;5.20;3.60;;;;;;;2.94;92.46;98083.53;5064886;28;20056;-63
2022/04/04 06:29:26;;;;;;;8.60;3.10;;;;;;;2.97;92.46;98063.78;5064834;28;20582;-63
2022/04/04 06:31:52;;;;;;;7.15;2.45;;;;;;;3.00;92.49;98055.22;5064756;28;20047;-63
2022/04/04 06:34:18;;;;;;;5.60;2.47;;;;;;;3.00;92.53;98046.69;5064369;28;20102;-63
2022/04/04 06:36:44;;;;;;;6.72;2.75;;;;;;;3.06;92.53;98039.75;5064437;28;20021;-62
2022/04/04 06:39:10;;;;;;;8.88;2.75;;;;;;;2.93;92.31;98003.19;5064555;28;20444;-63
2022/04/04 06:41:36;;;;;;;7.60;2.30;;;;;;;2.92;92.47;98024.59;5064734;28;20035;-64
2022/04/04 06:44:02;;;;;;;3.88;1.92;;;;;;;2.99;92.61;98003.97;5064434;28;20424;-64
2022/04/04 06:46:28;;;;;;;7.10;2.75;;;;;;;2.97;92.50;98006.56;5064203;28;20405;-64
2022/04/04 06:48:53;;;;;;;14.98;3.95;;;;;;;3.00;92.50;97993.72;5064423;28;20033;-64
2022/04/04 06:51:19;;;;;;;9.00;3.63;;;;;;;3.02;92.58;97989.38;5064057;28;20036;-63
2022/04/04 06:53:45;;;;;;;6.05;2.72;;;;;;;3.05;92.71;97978.25;5064209;28;20024;-64
2022/04/04 06:56:11;;;;;;;9.80;3.20;;;;;;;3.07;92.73;97973.91;5064344;28;20067;-64
2022/04/04 06:58:37;;;;;;;6.00;2.45;;;;;;;3.02;92.76;97957.78;5064321;28;20033;-63
2022/04/04 07:01:02;;;;;;;4.68;2.22;;;;;;;3.01;92.91;97946.69;5063998;28;20040;-64
2022/04/04 07:03:27;;;;;;;6.32;2.20;;;;;;;3.01;93.01;97933.88;5062605;28;20092;-64
2022/04/04 07:05:53;;;;;;;11.15;2.70;;;;;;;3.05;92.81;97919.28;5063672;28;20043;-64
2022/04/04 07:08:18;;;;;;;8.32;2.40;;;;;;;3.03;92.75;97919.31;5064038;28;20112;-64
2022/04/04 07:10:44;;;;;;;6.93;2.63;;;;;;;3.05;92.99;97906.47;5063945;28;20048;-64
2022/04/04 07:13:09;;;;;;;11.05;2.30;;;;;;;3.06;92.84;97885.94;5063944;28;20052;-65
2022/04/04 07:15:35;;;;;;;4.75;2.00;;;;;;;3.01;92.90;97884.31;5063809;28;20047;-65
2022/04/04 07:18:01;;;;;;;6.95;1.92;;;;;;;3.00;92.77;97878.34;5062503;28;20009;-64
2022/04/04 07:20:26;;;;;;;2.65;1.83;;;;;;;3.00;92.88;97867.25;5063804;28;20480;-63
2022/04/04 07:22:52;;;;;;;14.50;2.83;;;;;;;2.95;92.81;97869.91;5063558;28;20028;-64
2022/04/04 07:25:18;;;;;;;4.80;2.00;;;;;;;2.99;92.96;97855.31;5063713;28;20020;-65
2022/04/04 07:27:45;;;;;;;13.35;2.75;;;;;;;2.97;93.02;97835.66;5063587;28;20039;-63
2022/04/04 07:30:13;;;;;;;10.73;3.50;;;;;;;2.95;93.03;97816.06;5063783;28;20035;-64
2022/04/04 07:32:40;;;;;;;10.65;2.88;;;;;;;3.02;93.23;97827.06;5063608;28;20021;-64
2022/04/04 07:35:11;;;;;;;3.75;1.58;;;;;;;2.99;92.93;97801.50;5063462;28;20039;-64
2022/04/04 07:37:36;;;;;;;9.02;2.42;;;;;;;2.92;92.86;97805.88;5063289;28;20021;-64
2022/04/04 07:40:04;;;;;;;3.50;1.50;;;;;;;2.88;93.06;97789.72;5063405;28;20113;-64
2022/04/04 07:42:29;;;;;;;7.80;1.95;;;;;;;2.86;93.14;97765.81;5063456;28;20055;-63
2022/04/04 07:44:54;;;;;;;5.40;2.17;;;;;;;2.89;93.18;97760.63;5063266;28;20021;-63
2022/04/04 07:47:20;;;;;;;7.70;2.38;;;;;;;2.88;93.19;97752.97;5063279;28;20048;-63
2022/04/04 07:49:45;;;;;;;6.38;2.40;;;;;;;2.90;93.02;97731.59;5063143;28;20033;-64
2022/04/04 07:52:11;;;;;;;7.55;1.80;;;;;;;2.86;93.00;97735.06;5063114;28;20084;-65
2022/04/04 07:54:36;;;;;;;6.82;1.95;;;;;;;2.88;93.02;97735.91;5063288;28;20025;-64
2022/04/04 07:57:01;;;;;;;2.75;1.73;;;;;;;2.80;92.92;97696.75;5063247;28;20032;-64
2022/04/04 07:59:27;;;;;;;2.53;1.90;;;;;;;2.83;92.84;97689.00;5063098;28;20469;-64
2022/04/04 08:01:52;;;;;;;7.82;2.17;;;;;;;2.79;93.08;97695.94;5063160;28;20554;-64
2022/04/04 08:04:17;;;;;;;7.78;2.00;;;;;;;2.78;93.18;97685.72;5062956;28;20481;-64
2022/04/04 08:06:43;;;;;;;7.00;1.98;;;;;;;2.81;93.11;97630.09;5061654;28;20036;-64
2022/04/04 08:09:09;;;;;;;4.50;1.60;;;;;;;2.83;92.91;97664.25;5063039;28;20055;-65
2022/04/04 08:11:35;;;;;;;7.03;1.75;;;;;;;2.82;93.08;97654.88;5063114;28;20061;-64
2022/04/04 08:14:00;;;;;;;3.47;1.95;;;;;;;2.85;92.83;97630.88;5062931;28;20051;-65
2022/04/04 08:16:26;;;;;;;8.90;2.35;;;;;;;2.71;92.62;97624.38;5063054;28;20025;-64
2022/04/04 08:18:53;;;;;;;7.00;1.88;;;;;;;2.76;92.59;97631.09;5063207;28;20348;-64
2022/04/04 08:21:19;;;;;;;3.45;1.40;;;;;;;2.69;92.56;97620.13;5062761;28;20104;-64
2022/04/04 08:23:44;;;;;;;4.20;1.30;;;;;;;2.60;92.46;97603.25;5063038;28;20021;-65
2022/04/04 08:26:10;;;;;;;2.88;1.08;;;;;;;2.51;92.53;97586.34;5061488;28;20021;-64
2022/04/04 08:28:37;;;;;;;7.43;1.30;;;;;;;2.45;92.54;97591.59;5064691;28;20021;-64
2022/04/04 08:31:03;;;;;;;5.55;0.98;;;;;;;2.37;92.64;97565.31;5067033;28;20415;-64
2022/04/04 08:33:28;;;;;;;4.68;1.02;;;;;;;2.39;92.47;97546.50;5067241;28;20044;-65
2022/04/04 08:35:57;;;;;;;7.80;1.15;;;;;;;2.29;92.71;97539.88;5066707;28;20021;-64
2022/04/04 08:38:22;;;;;;;6.80;1.10;;;;;;;2.31;92.34;97550.94;5067263;28;20014;-64
2022/04/04 08:40:49;;;;;;;1.77;0.70;;;;;;;2.25;92.29;97525.47;5067062;28;20078;-64
2022/04/04 08:43:17;;;;;;;0.85;0.65;;;;;;;2.18;92.30;97532.41;5066988;28;20048;-65
2022/04/04 08:45:44;;;;;;;2.17;0.82;;;;;;;2.17;92.46;97512.81;5066615;28;20083;-65
2022/04/04 08:48:10;;;;;;;2.25;0.93;;;;;;;2.26;92.22;97510.06;5066529;28;20028;-63
2022/04/04 08:50:38;;;;;;;3.35;0.93;;;;;;;2.27;92.71;97493.00;5066550;28;20025;-64
2022/04/04 08:53:04;;;;;;;3.58;0.93;;;;;;;2.27;92.97;97475.91;5066513;28;20041;-64
2022/04/04 08:55:29;;;;;;;4.95;1.30;;;;;;;2.29;93.01;97468.19;5066530;28;20100;-64
2022/04/04 08:57:56;;;;;;;6.95;1.45;;;;;;;2.28;92.99;97467.34;5066469;28;20032;-65
2022/04/04 09:00:22;;;;;;;1.50;0.93;;;;;;;2.32;92.97;97453.59;5066417;28;20101;-64
2022/04/04 09:02:58;;;;;;;4.47;1.15;;;;;;;2.30;92.90;97437.44;5066669;28;20029;-64
2022/04/04 09:05:24;;;;;;;1.67;1.02;;;;;;;2.26;93.01;97440.94;5066597;28;20017;-65
2022/04/04 09:08:07;;;;;;;3.75;1.00;;;;;;;2.25;93.25;97426.47;5066107;28;20037;-65
2022/04/04 09:10:36;;;;;;;;;;;;;;;2.31;93.12;97407.56;5066868;28;20020;-65
2022/04/04 09:13:09;;;;;;;4.60;1.40;;;;;;;2.26;93.11;97405.09;5066413;28;19908;-64
2022/04/04 09:15:52;;;;;;;3.47;1.30;;;;;;;2.22;93.25;97380.47;5066225;28;20468;-63
2022/04/04 09:18:19;;;;;;;10.07;1.15;;;;;;;2.19;93.16;97355.75;5066279;28;20063;-65
2022/04/04 09:21:04;;;;;;;5.82;1.70;;;;;;;2.15;93.09;97356.72;5066032;28;20078;-63
2022/04/04 09:23:33;;;;;;;6.28;1.25;;;;;;;2.13;93.34;97349.94;5066220;28;20045;-64
2022/04/04 09:26:00;;;;;;;6.38;1.48;;;;;;;2.23;93.20;97351.41;5065965;28;20029;-64
2022/04/04 09:28:26;;;;;;;4.93;1.48;;;;;;;2.23;93.24;97330.94;5065952;28;20013;-63
2022/04/04 09:31:09;;;;;;;4.30;1.17;;;;;;;2.26;93.11;97327.44;5065864;28;20032;-63
2022/04/04 09:33:36;;;;;;;7.43;1.50;;;;;;;2.18;93.16;97308.03;5065995;28;20044;-64
2022/04/04 09:36:02;;;;;;;6.50;1.23;;;;;;;2.23;92.99;97295.09;5065404;28;20183;-64
2022/04/04 09:38:27;;;;;;;9.63;1.10;;;;;;;2.26;92.88;97299.28;5066094;28;20397;-64
2022/04/04 09:40:52;;;;;;;1.08;0.98;;;;;;;2.26;92.90;97283.94;5065825;28;20029;-64
2022/04/04 09:43:18;;;;;;;2.92;1.10;;;;;;;2.19;92.74;97273.84;5064587;28;20362;-64
2022/04/04 09:45:46;;;;;;;3.08;1.15;;;;;;;2.16;92.95;97248.34;5065575;28;20045;-64
2022/04/04 09:48:11;;;;;;;6.20;1.35;;;;;;;2.12;93.18;97251.88;5065625;28;20081;-64
2022/04/04 09:50:49;;;;;;;5.15;1.10;;;;;;;2.23;93.04;97242.19;5065681;28;20029;-64
2022/04/04 09:53:28;;;;;;;7.45;1.50;;;;;;;2.26;93.11;97222.50;5065706;28;20086;-64
2022/04/04 09:55:56;;;;;;;1.92;1.55;;;;;;;2.21;92.90;97220.06;5065578;28;20020;-65
2022/04/04 09:58:40;;;;;;;4.45;0.77;;;;;;;2.15;92.98;97203.16;5065515;28;20086;-64
2022/04/04 10:01:06;;;;;;;3.25;0.93;;;;;;;2.09;92.92;97190.53;5065464;28;20105;-66
2022/04/04 10:03:31;;;;;;;1.55;0.60;;;;;;;2.14;92.90;97183.53;5065653;28;20444;-65
2022/04/04 10:06:05;;;;;;;4.55;1.27;;;;;;;2.07;92.96;97171.81;5064887;28;20139;-65
2022/04/04 10:08:32;;;;;;;3.33;0.85;;;;;;;2.05;93.08;97153.94;5065352;28;20092;-66
2022/04/04 10:10:58;;;;;;;2.38;0.98;;;;;;;2.02;92.86;97146.34;5065184;28;20063;-65
2022/04/04 10:13:25;;;;;;;1.88;0.80;;;;;;;1.98;93.01;97132.78;5065154;28;20025;-64
2022/04/04 10:15:51;;;;;;;2.05;0.77;;;;;;;1.96;93.00;97116.66;5063566;28;20056;-65
2022/04/04 10:18:18;;;;;;;1.75;0.85;;;;;;;1.99;93.05;97113.16;5063424;28;20032;-64
2022/04/04 10:20:52;;;;;;;4.40;1.05;;;;;;;1.98;93.15;97101.25;5065053;28;20028;-64
2022/04/04 10:23:18;;;;;;;0.77;0.70;;;;;;;2.05;93.47;97081.44;5064982;28;20516;-64
2022/04/04 10:25:44;;;;;;;3.55;1.17;;;;;;;2.08;93.43;97073.66;5064789;28;20070;-65
2022/04/04 10:28:09;;;;;;;1.25;0.90;;;;;;;2.10;93.74;97059.97;5064733;28;20048;-64
2022/04/04 10:30:40;;;;;;;2.53;0.80;;;;;;;2.19;93.78;97037.56;5064891;28;20043;-64
2022/04/04 10:33:23;;;;;;;1.55;1.05;;;;;;;2.21;93.91;97026.38;5064754;28;20088;-65
2022/04/04 10:36:04;;;;;;;2.40;1.05;;;;;;;2.32;94.18;97017.53;5064671;28;20176;-66
2022/04/04 10:38:46;;;;;;;2.85;0.65;;;;;;;2.41;94.32;97007.00;5064950;28;20075;-65
2022/04/04 10:41:14;;;;;;;4.65;0.90;;;;;;;2.47;94.41;97001.72;5064766;28;20073;-66
2022/04/04 10:43:44;;;;;;;7.57;1.30;;;;;;;2.52;94.32;96991.34;5064546;28;20024;-66
2022/04/04 10:46:12;;;;;;;3.45;1.00;;;;;;;2.54;94.33;96970.81;5064406;28;20040;-65
2022/04/04 10:49:04;;;;;;;6.32;1.40;;;;;;;2.58;94.46;96962.97;5064542;28;20037;-66
2022/04/04 10:51:35;;;;;;;5.80;1.20;;;;;;;2.67;94.82;96959.28;5060854;28;20036;-68
2022/04/04 10:54:05;;;;;;;7.25;1.60;;;;;;;2.78;94.97;96953.81;5063133;28;20032;-66
2022/04/04 10:56:35;;;;;;;2.40;1.05;;;;;;;2.91;95.07;96938.88;5063007;28;20029;-66
2022/04/04 10:59:16;;;;;;;3.92;0.40;;;;;;;3.02;95.20;96927.44;5064801;28;20020;-65
2022/04/04 11:01:43;;;;;;;0.38;0.38;;;;;;;3.14;95.38;96924.44;5064497;28;20079;-67
2022/04/04 11:04:37;;;;;;;0.40;0.40;;;;;;;3.29;95.55;96922.25;5062933;28;20040;-67
2022/04/04 11:09:55;;;;;;;0.30;0.30;;;;;;;3.64;95.82;96899.63;5064260;28;20044;-66
2022/04/04 11:12:23;;;;;;;0.30;0.30;;;;;;;3.82;96.18;96879.28;5064176;28;20028;-66
2022/04/04 11:14:54;;;;;;;0.30;0.30;;;;;;;3.99;96.21;96875.25;5064014;28;20079;-67
2022/04/04 11:17:30;;;;;;;0.40;0.40;;;;;;;4.16;96.22;96866.88;5064171;28;20025;-67
2022/04/04 11:20:16;;;;;;;0.30;0.30;;;;;;;4.33;96.29;96861.06;5064071;28;20052;-68
2022/04/04 11:22:46;;;;;;;0.30;0.30;;;;;;;4.48;96.34;96841.63;5062553;28;20252;-67
2022/04/04 11:25:14;;;;;;;0.30;0.30;;;;;;;4.62;96.38;96841.03;5063756;28;20455;-66
2022/04/04 11:27:40;;;;;;;0.30;0.30;;;;;;;4.73;96.35;96839.78;5063974;28;20025;-67
2022/04/04 11:30:09;;;;;;;0.30;0.30;;;;;;;4.83;96.28;96825.63;5063924;28;20112;-67
2022/04/04 11:32:40;;;;;;;0.30;0.30;;;;;;;4.93;96.33;96819.19;5063929;28;20029;-67
2022/04/04 11:35:23;;;;;;;0.40;0.40;;;;;;;5.08;96.37;96814.25;5063767;28;20020;-68
2022/04/04 11:38:17;;;;;;;0.30;0.30;;;;;;;5.16;96.30;96801.91;5063716;28;20341;-66
2022/04/04 11:40:45;;;;;;;0.30;0.30;;;;;;;5.26;96.22;96793.78;5063762;28;20036;-66
2022/04/04 11:43:13;;;;;;;0.20;0.20;;;;;;;5.33;96.38;96782.31;5063841;28;20032;-66
2022/04/04 11:45:40;;;;;;;0.30;0.30;;;;;;;5.41;96.34;96780.22;5063295;28;20039;-66